Benedict, Minnesota
Current Conditions -  °F | °C
As of 11:35 PM on Wednesday 26 Nov 2014 (Local Time) from KY49 Reporting Station
Clear Clear  
Wind Chill: -8°   Ceiling: Unl
Heat Index: -8°   Visibility: 10mi
Dew Point: -13°   Wind: 3mph
Humidity: 81%   Direction: 300°WNW
Pressure: 30.44"   Gusts: NA
Location:  47.16°N, 94.69°W
Report Text: KY49 270535Z AUTO 30003KT 10SM CLR M22/M25 A3044 RMK AO2 T12231248
Loading
Personal Weather Stations






























Interactive Weather Map New forecast layout! Learn more

10-Day Weather Forecast

Advertisements
Track Severe Weather on mobile